Capitol Logistics 459


KRFD
Chicago/Rockford International Airport
Rockford, Illinois, US
KEWR
Newark Liberty International Airport
Newark, New Jersey, US

Route Details

Aircraft Information
Primary: Boeing 737-800BCF
Backup: Not Available
Route Data
Distance: 679nm
Sched. Duration: 1h 43m
Avg. Duration: 1h 88m (+45m)
Times Flown: 6
Recm'd Route: OBK SAMPL ADIME NELLS KEEHO J584 SLT FQM FQM3
Planned Altitude: 37,000ft
Origin Wx: KRFD 261254Z 14006KT 10SM BKN170 OVC250 22/18 A2999 RMK AO2 SLP150 T02170178
Dest. Wx: KEWR 261251Z 00000KT 3SM BR OVC006 17/15 A3023 RMK AO2 SFC VIS 6 SLP236 CIG 005V007 T01720150
Notes:

Financial History
Total Freight: 188,496lbs
Average Load: 31,416lbs/flt
Fuel Used: 69,944lbs
Avg. Fuel Used: 11,657lbs/flt
Fuel Expense: $50,922
Avg. Fuel Expense: $8,487
Avg. Fuel Cost: $0.72/lbs
Total Gross Income: $255,240
Pilot Pay: $894
Total Expenses: $27,878
Total Revenue: $174,513
Average Revenue: $42,540.08